createdAt,value
2023-02-23T00:00:47.388Z,23.73
2023-02-23T00:03:14.608Z,25.00
2023-02-23T00:05:41.180Z,31.23
2023-02-23T00:08:07.900Z,24.20
2023-02-23T00:10:34.398Z,24.60
2023-02-23T00:13:00.726Z,25.52
2023-02-23T00:15:27.316Z,24.55
2023-02-23T00:17:53.617Z,24.27
2023-02-23T00:20:19.980Z,29.80
2023-02-23T00:22:46.810Z,26.63
2023-02-23T00:25:13.912Z,26.48
2023-02-23T00:27:40.446Z,27.95
2023-02-23T00:30:06.800Z,27.08
2023-02-23T00:32:33.590Z,26.33
2023-02-23T00:35:00.449Z,24.63
2023-02-23T00:37:27.506Z,27.13
2023-02-23T00:39:53.941Z,27.67
2023-02-23T00:42:20.705Z,26.52
2023-02-23T00:44:47.068Z,27.27
2023-02-23T00:47:13.621Z,29.92
2023-02-23T00:49:39.922Z,27.60
2023-02-23T00:52:06.324Z,25.63
2023-02-23T00:54:32.918Z,27.85
2023-02-23T00:56:59.699Z,26.80
2023-02-23T00:59:26.335Z,25.48
2023-02-23T01:01:52.946Z,26.42
2023-02-23T01:04:19.292Z,24.52
2023-02-23T01:06:45.674Z,30.38
2023-02-23T01:09:12.309Z,24.83
2023-02-23T01:11:38.716Z,27.27
2023-02-23T01:14:05.125Z,26.35
2023-02-23T01:16:31.875Z,24.88
2023-02-23T01:18:58.458Z,26.00
2023-02-23T01:21:24.742Z,25.85
2023-02-23T01:23:51.225Z,27.98
2023-02-23T01:26:18.115Z,29.90
2023-02-23T01:28:44.480Z,28.70
2023-02-23T01:31:10.934Z,24.58
2023-02-23T01:33:37.359Z,25.85
2023-02-23T01:36:03.707Z,29.95
2023-02-23T01:38:30.182Z,23.48
2023-02-23T01:40:57.136Z,26.10
2023-02-23T01:43:23.825Z,30.20
2023-02-23T01:45:50.378Z,31.40
2023-02-23T01:48:16.707Z,24.98
2023-02-23T01:50:43.080Z,27.33
2023-02-23T01:53:09.409Z,26.42
2023-02-23T01:55:35.771Z,26.98
2023-02-23T01:58:02.075Z,27.92
2023-02-23T02:00:28.570Z,25.90
2023-02-23T02:02:55.517Z,27.17
2023-02-23T02:05:21.935Z,26.08
2023-02-23T02:07:48.587Z,26.33
2023-02-23T02:10:15.061Z,25.50
2023-02-23T02:12:41.564Z,24.52
2023-02-23T02:15:09.008Z,25.92
2023-02-23T02:17:35.610Z,26.95
2023-02-23T02:20:01.939Z,27.85
2023-02-23T02:22:28.331Z,27.85
2023-02-23T02:24:54.640Z,27.27
2023-02-23T02:27:21.351Z,23.38
2023-02-23T02:29:47.725Z,27.70
2023-02-23T02:32:14.791Z,25.90
2023-02-23T02:34:41.242Z,23.15
2023-02-23T02:37:07.662Z,25.70
2023-02-23T02:39:34.066Z,24.63
2023-02-23T02:42:00.364Z,27.35
2023-02-23T02:44:27.299Z,25.70
2023-02-23T02:46:53.959Z,26.98
2023-02-23T02:49:20.350Z,24.33
2023-02-23T02:51:46.930Z,26.20
2023-02-23T02:54:13.300Z,26.42
2023-02-23T02:56:39.671Z,23.88
2023-02-23T02:59:06.044Z,25.90
2023-02-23T03:01:32.428Z,25.70
2023-02-23T03:03:58.748Z,25.60
2023-02-23T03:06:25.078Z,29.00
2023-02-23T03:08:51.582Z,28.05
2023-02-23T03:11:18.334Z,25.52
2023-02-23T03:13:45.083Z,25.02
2023-02-23T03:16:11.482Z,26.48
2023-02-23T03:18:37.953Z,25.35
2023-02-23T03:21:04.812Z,23.67
2023-02-23T03:23:31.914Z,25.13
2023-02-23T03:25:58.539Z,25.75
2023-02-23T03:28:26.161Z,25.63
2023-02-23T03:30:53.178Z,26.10
2023-02-23T03:33:19.575Z,23.98
2023-02-23T03:35:46.146Z,26.25
2023-02-23T03:38:12.622Z,25.98
2023-02-23T03:40:39.221Z,25.35
2023-02-23T03:43:05.819Z,25.33
2023-02-23T03:45:32.295Z,24.70
2023-02-23T03:47:58.879Z,23.95
2023-02-23T03:50:25.419Z,23.58
2023-02-23T03:52:51.765Z,23.50
2023-02-23T03:55:18.261Z,22.92
2023-02-23T03:57:44.746Z,26.85
2023-02-23T04:00:11.073Z,27.80
2023-02-23T04:02:37.710Z,23.95
2023-02-23T04:05:04.142Z,24.02
2023-02-23T04:07:31.152Z,22.75
2023-02-23T04:09:57.498Z,22.63
2023-02-23T04:12:23.925Z,26.92
2023-02-23T04:14:50.302Z,25.65
2023-02-23T04:17:16.671Z,26.65
2023-02-23T04:19:43.174Z,24.65
2023-02-23T04:22:09.519Z,20.75
2023-02-23T04:24:36.286Z,24.92
2023-02-23T04:27:02.655Z,25.38
2023-02-23T04:29:29.049Z,22.58
2023-02-23T04:31:55.467Z,20.38
2023-02-23T04:34:21.857Z,25.50
2023-02-23T04:36:48.917Z,25.40
2023-02-23T04:39:15.427Z,24.92
2023-02-23T04:41:41.789Z,22.60
2023-02-23T04:44:08.196Z,24.85
2023-02-23T04:46:34.556Z,24.98
2023-02-23T04:49:01.127Z,23.13
2023-02-23T04:51:27.672Z,22.60
2023-02-23T04:53:54.287Z,26.75
2023-02-23T04:56:20.807Z,24.90
2023-02-23T04:58:47.586Z,22.02
2023-02-23T05:01:14.001Z,22.08
2023-02-23T05:03:40.571Z,22.77
2023-02-23T05:06:07.232Z,24.35
2023-02-23T05:08:33.603Z,21.40
2023-02-23T05:11:00.334Z,22.80
2023-02-23T05:13:27.102Z,26.02
2023-02-23T05:15:53.513Z,23.27
2023-02-23T05:18:20.146Z,23.70
2023-02-23T05:20:47.002Z,21.73
2023-02-23T05:23:13.816Z,22.30
2023-02-23T05:25:40.668Z,25.20
2023-02-23T05:28:07.262Z,23.98
2023-02-23T05:30:33.814Z,24.10
2023-02-23T05:33:00.194Z,24.88
2023-02-23T05:35:26.975Z,23.33
2023-02-23T05:37:53.744Z,25.25
2023-02-23T05:40:20.391Z,23.65
2023-02-23T05:42:46.817Z,22.48
2023-02-23T05:45:13.467Z,23.58
2023-02-23T05:47:39.854Z,24.73
2023-02-23T05:50:06.520Z,23.13
2023-02-23T05:52:33.504Z,21.60
2023-02-23T05:55:00.176Z,23.23
2023-02-23T05:57:27.076Z,22.63
2023-02-23T05:59:53.539Z,21.63
2023-02-23T06:02:19.920Z,23.13
2023-02-23T06:04:46.788Z,25.55
2023-02-23T06:07:13.124Z,23.95
2023-02-23T06:09:39.699Z,23.77
2023-02-23T06:12:06.274Z,23.83
2023-02-23T06:14:32.566Z,23.55
2023-02-23T06:16:59.165Z,22.45
2023-02-23T06:19:25.610Z,25.95
2023-02-23T06:21:51.924Z,176.95
2023-02-23T06:24:18.275Z,262.25
2023-02-23T06:26:44.692Z,158.52
2023-02-23T06:29:10.977Z,174.00
2023-02-23T06:31:37.403Z,170.45
2023-02-23T06:34:03.826Z,159.20
2023-02-23T06:36:30.582Z,292.00
2023-02-23T06:38:57.004Z,242.85
2023-02-23T06:41:23.372Z,392.98
2023-02-23T06:43:49.865Z,348.88
2023-02-23T06:46:16.280Z,305.90
2023-02-23T06:48:42.647Z,238.48
2023-02-23T06:51:09.040Z,270.23
2023-02-23T06:53:35.409Z,258.92
2023-02-23T06:56:01.837Z,254.52
2023-02-23T06:58:28.182Z,249.23
2023-02-23T07:00:54.922Z,242.40
2023-02-23T07:03:21.236Z,237.65
2023-02-23T07:05:47.970Z,239.27
2023-02-23T07:08:14.396Z,229.57
2023-02-23T07:10:40.717Z,221.48
2023-02-23T07:13:07.392Z,220.10
2023-02-23T07:15:33.827Z,221.10
2023-02-23T07:18:00.147Z,212.07
2023-02-23T07:20:26.749Z,210.25
2023-02-23T07:22:53.664Z,210.40
2023-02-23T07:25:20.046Z,200.25
2023-02-23T07:27:46.646Z,205.82
2023-02-23T07:30:13.015Z,194.20
2023-02-23T07:32:39.467Z,189.23
2023-02-23T07:35:05.835Z,189.80
2023-02-23T07:37:32.465Z,191.55
2023-02-23T07:40:01.024Z,184.70
2023-02-23T07:42:27.865Z,187.32
2023-02-23T07:44:54.256Z,184.27
2023-02-23T07:47:20.708Z,185.57
2023-02-23T07:49:47.054Z,181.15
2023-02-23T07:52:13.782Z,175.73
2023-02-23T07:54:40.157Z,171.02
2023-02-23T07:57:06.898Z,167.55
2023-02-23T07:59:33.755Z,171.32
2023-02-23T08:02:00.163Z,170.57
2023-02-23T08:04:26.670Z,172.18
2023-02-23T08:06:53.250Z,152.13
2023-02-23T08:09:19.709Z,163.35
2023-02-23T08:11:46.449Z,167.82
2023-02-23T08:14:12.798Z,156.43
2023-02-23T08:16:39.262Z,147.57
2023-02-23T08:19:05.734Z,147.77
2023-02-23T08:21:32.510Z,145.52
2023-02-23T08:23:58.941Z,154.20
2023-02-23T08:26:25.425Z,135.38
2023-02-23T08:28:51.882Z,133.32
2023-02-23T08:31:18.674Z,133.15
2023-02-23T08:33:45.207Z,140.38
2023-02-23T08:36:11.559Z,128.65
2023-02-23T08:38:38.325Z,114.90
2023-02-23T08:41:04.843Z,129.07
2023-02-23T08:43:31.536Z,122.28
2023-02-23T08:45:58.168Z,121.10
2023-02-23T08:48:24.733Z,132.35
2023-02-23T08:50:51.032Z,116.70
2023-02-23T08:53:17.522Z,121.22
2023-02-23T08:55:43.888Z,109.18
2023-02-23T08:58:10.270Z,114.78
2023-02-23T09:00:36.830Z,101.43
2023-02-23T09:03:03.690Z,100.72
2023-02-23T09:05:30.135Z,108.95
2023-02-23T09:07:57.015Z,94.43
2023-02-23T09:10:23.575Z,91.50
2023-02-23T09:12:50.475Z,90.30
2023-02-23T09:15:16.850Z,92.18
2023-02-23T09:17:43.264Z,87.13
2023-02-23T09:20:09.562Z,90.90
2023-02-23T09:22:37.016Z,95.22
2023-02-23T09:25:03.510Z,95.30
2023-02-23T09:27:29.852Z,87.97
2023-02-23T09:29:56.271Z,80.72
2023-02-23T09:32:23.144Z,81.63
2023-02-23T09:34:49.611Z,79.38
2023-02-23T09:37:16.009Z,79.40
2023-02-23T09:39:42.757Z,78.72
2023-02-23T09:42:09.572Z,80.25
2023-02-23T09:44:35.862Z,77.60
2023-02-23T09:47:02.169Z,77.28
2023-02-23T09:49:29.020Z,77.63
2023-02-23T09:51:55.424Z,75.45
2023-02-23T09:54:21.904Z,77.13
2023-02-23T09:56:48.519Z,72.53
2023-02-23T09:59:14.909Z,75.53
2023-02-23T10:01:41.778Z,75.18
2023-02-23T10:04:08.214Z,70.53
2023-02-23T10:06:34.582Z,76.10
2023-02-23T10:09:01.406Z,69.13
2023-02-23T10:11:27.835Z,71.80
2023-02-23T10:13:54.211Z,68.78
2023-02-23T10:16:20.763Z,72.03
2023-02-23T10:18:47.510Z,69.95
2023-02-23T10:21:13.864Z,71.43
2023-02-23T10:23:40.440Z,70.10
2023-02-23T10:26:06.745Z,67.40
2023-02-23T10:28:33.394Z,67.05
2023-02-23T10:30:59.847Z,66.25
2023-02-23T10:33:26.787Z,66.70
2023-02-23T10:36:07.200Z,66.03
2023-02-23T10:38:39.115Z,61.08
2023-02-23T10:41:05.517Z,65.07
2023-02-23T10:43:32.063Z,62.42
2023-02-23T10:45:58.503Z,61.65
2023-02-23T10:48:25.554Z,62.05
2023-02-23T10:50:52.154Z,64.18
2023-02-23T10:53:18.576Z,60.38
2023-02-23T10:55:45.254Z,60.28
2023-02-23T10:58:11.669Z,62.47
2023-02-23T11:00:37.988Z,63.78
2023-02-23T11:03:04.371Z,58.88
2023-02-23T11:05:30.682Z,60.88
2023-02-23T11:07:57.745Z,58.45
2023-02-23T11:10:24.132Z,52.42
2023-02-23T11:12:50.771Z,57.50
2023-02-23T11:15:17.181Z,57.30
2023-02-23T11:17:43.743Z,51.78
2023-02-23T11:20:10.560Z,56.08
2023-02-23T11:22:36.978Z,54.40
2023-02-23T11:25:03.675Z,53.92
2023-02-23T11:27:30.171Z,55.63
2023-02-23T11:29:56.606Z,54.00
2023-02-23T11:32:23.372Z,56.05
2023-02-23T11:34:50.146Z,52.88
2023-02-23T11:37:16.870Z,57.75
2023-02-23T11:39:43.402Z,52.38
2023-02-23T11:42:09.911Z,52.72
2023-02-23T11:44:36.444Z,54.10
2023-02-23T11:47:02.826Z,56.13
2023-02-23T11:49:29.593Z,53.28
2023-02-23T11:51:56.122Z,47.95
2023-02-23T11:54:22.417Z,54.58
2023-02-23T11:56:49.189Z,56.70
2023-02-23T11:59:15.527Z,52.50
2023-02-23T12:01:42.168Z,50.30
2023-02-23T12:04:08.671Z,49.60
2023-02-23T12:06:35.128Z,45.53
2023-02-23T12:09:01.506Z,48.58
2023-02-23T12:11:27.883Z,48.40
2023-02-23T12:13:54.221Z,51.78
2023-02-23T12:16:21.036Z,45.60
2023-02-23T12:18:47.739Z,50.00
2023-02-23T12:21:14.015Z,48.58
2023-02-23T12:23:40.344Z,44.10
2023-02-23T12:26:06.786Z,44.95
2023-02-23T12:28:33.367Z,44.03
2023-02-23T12:30:59.743Z,46.13
2023-02-23T12:33:26.068Z,42.92
2023-02-23T12:35:52.640Z,47.63
2023-02-23T12:38:19.438Z,45.15
2023-02-23T12:40:45.824Z,40.55
2023-02-23T12:43:12.726Z,44.75
2023-02-23T12:45:39.479Z,43.03
2023-02-23T12:48:05.979Z,43.08
2023-02-23T12:50:32.374Z,42.83
2023-02-23T12:52:59.209Z,44.10
2023-02-23T12:55:25.554Z,38.80
2023-02-23T12:57:52.146Z,37.97
2023-02-23T13:00:19.050Z,48.55
2023-02-23T13:02:45.584Z,40.33
2023-02-23T13:05:12.008Z,39.75
2023-02-23T13:07:38.747Z,47.95
2023-02-23T13:10:05.161Z,40.95
2023-02-23T13:12:31.757Z,38.17
2023-02-23T13:14:58.260Z,38.63
2023-02-23T13:17:24.570Z,41.58
2023-02-23T13:19:51.177Z,39.25
2023-02-23T13:22:17.930Z,39.78
2023-02-23T13:24:44.401Z,35.60
2023-02-23T13:27:10.773Z,37.55
2023-02-23T13:29:37.162Z,40.70
2023-02-23T13:32:03.818Z,40.13
2023-02-23T13:34:30.436Z,38.95
2023-02-23T13:36:57.126Z,39.72
2023-02-23T13:39:23.618Z,36.53
2023-02-23T13:41:50.403Z,41.10
2023-02-23T13:44:16.943Z,40.20
2023-02-23T13:46:43.192Z,41.17
2023-02-23T13:49:09.587Z,43.53
2023-02-23T13:51:35.941Z,36.30
2023-02-23T13:54:02.415Z,34.47
2023-02-23T13:56:29.296Z,38.72
2023-02-23T13:58:55.659Z,38.72
2023-02-23T14:01:22.449Z,41.45
2023-02-23T14:03:49.627Z,41.70
2023-02-23T14:06:15.968Z,37.75
2023-02-23T14:08:42.678Z,47.67
2023-02-23T14:11:09.313Z,31.45
2023-02-23T14:13:35.692Z,35.40
2023-02-23T14:16:02.409Z,35.97
2023-02-23T14:18:28.879Z,39.70
2023-02-23T14:20:55.651Z,42.70
2023-02-23T14:23:22.032Z,35.25
2023-02-23T14:25:48.407Z,34.60
2023-02-23T14:28:14.717Z,34.22
2023-02-23T14:30:41.404Z,35.92
2023-02-23T14:33:21.109Z,36.58
2023-02-23T14:35:47.853Z,35.53
2023-02-23T14:38:14.450Z,35.55
2023-02-23T14:40:40.926Z,33.30
2023-02-23T14:43:07.254Z,32.53
2023-02-23T14:45:34.143Z,34.50
2023-02-23T14:48:00.541Z,31.83
2023-02-23T14:50:27.001Z,33.40
2023-02-23T14:52:53.341Z,34.00
2023-02-23T14:55:20.096Z,36.13
2023-02-23T14:57:46.505Z,32.88
2023-02-23T15:00:12.859Z,36.30
2023-02-23T15:02:53.677Z,35.78
2023-02-23T15:05:20.449Z,35.33
2023-02-23T15:07:47.420Z,29.95
2023-02-23T15:10:13.881Z,31.30
2023-02-23T15:12:40.710Z,30.48
2023-02-23T15:15:07.317Z,32.75
2023-02-23T15:17:33.607Z,31.45
2023-02-23T15:22:47.096Z,32.00
2023-02-23T15:25:13.402Z,31.95
2023-02-23T15:27:39.804Z,32.63
2023-02-23T15:30:06.146Z,29.90
2023-02-23T15:32:32.819Z,30.08
2023-02-23T15:34:59.345Z,29.45
2023-02-23T15:37:26.608Z,29.50
2023-02-23T15:39:52.956Z,29.60
2023-02-23T15:42:19.674Z,28.70
2023-02-23T15:44:46.173Z,30.75
2023-02-23T15:47:13.068Z,29.00
2023-02-23T15:49:39.771Z,31.45
2023-02-23T15:52:06.251Z,27.23
2023-02-23T15:54:33.144Z,30.55
2023-02-23T15:56:59.889Z,28.08
2023-02-23T15:59:26.322Z,29.08
2023-02-23T16:01:52.751Z,27.70
2023-02-23T16:04:19.114Z,30.00
2023-02-23T16:06:45.724Z,26.90
2023-02-23T16:09:12.089Z,29.88
2023-02-23T16:11:39.157Z,27.40
2023-02-23T16:14:05.787Z,26.98
2023-02-23T16:16:32.336Z,28.13
2023-02-23T16:18:58.830Z,28.67
2023-02-23T16:21:25.397Z,28.75
2023-02-23T16:23:51.882Z,28.40
2023-02-23T16:26:18.819Z,27.08
2023-02-23T16:28:45.461Z,27.92
2023-02-23T16:31:12.059Z,29.13
2023-02-23T16:33:38.487Z,25.35
2023-02-23T16:36:04.888Z,28.75
2023-02-23T16:38:31.198Z,26.52
2023-02-23T16:40:57.732Z,25.63
2023-02-23T16:43:24.162Z,29.80
2023-02-23T16:45:51.107Z,25.70
2023-02-23T16:48:17.582Z,27.23
2023-02-23T16:50:43.952Z,23.80
2023-02-23T16:53:10.323Z,24.60
2023-02-23T16:55:36.682Z,25.42
2023-02-23T16:58:03.480Z,27.27
2023-02-23T17:00:29.855Z,25.60
2023-02-23T17:02:56.710Z,26.13
2023-02-23T17:05:23.479Z,28.58
2023-02-23T17:07:49.892Z,28.90
2023-02-23T17:10:16.653Z,26.63
2023-02-23T17:12:43.062Z,22.38
2023-02-23T17:15:09.402Z,26.00
2023-02-23T17:17:35.696Z,29.45
2023-02-23T17:20:02.028Z,25.65
2023-02-23T17:22:28.717Z,29.30
2023-02-23T17:24:55.169Z,25.75
2023-02-23T17:27:21.510Z,24.73
2023-02-23T17:29:47.931Z,25.88
2023-02-23T17:32:14.587Z,24.23
2023-02-23T17:34:41.096Z,25.70
2023-02-23T17:37:08.036Z,24.98
2023-02-23T17:39:34.557Z,26.98
2023-02-23T17:42:00.925Z,24.02
2023-02-23T17:44:27.304Z,25.85
2023-02-23T17:46:53.779Z,26.52
2023-02-23T17:49:20.126Z,24.52
2023-02-23T17:51:46.750Z,25.63
2023-02-23T17:54:13.077Z,26.30
2023-02-23T17:56:39.423Z,25.98
2023-02-23T17:59:05.829Z,24.45
2023-02-23T18:01:32.267Z,25.75
2023-02-23T18:03:58.741Z,29.17
2023-02-23T18:06:25.119Z,23.90
2023-02-23T18:08:51.523Z,26.88
2023-02-23T18:11:17.936Z,24.05
2023-02-23T18:13:46.199Z,26.80
2023-02-23T18:18:41.501Z,24.50
2023-02-23T18:21:08.088Z,23.40
2023-02-23T18:23:34.408Z,26.30
2023-02-23T18:26:00.754Z,26.20
2023-02-23T18:28:27.030Z,25.55
2023-02-23T18:30:54.004Z,26.23
2023-02-23T18:33:20.665Z,27.02
2023-02-23T18:35:47.051Z,27.73
2023-02-23T18:38:13.563Z,25.63
2023-02-23T18:40:40.109Z,29.52
2023-02-23T18:43:06.800Z,25.25
2023-02-23T18:45:33.899Z,27.20
2023-02-23T18:48:00.541Z,26.17
2023-02-23T18:50:27.194Z,28.63
2023-02-23T18:52:53.863Z,29.45
2023-02-23T18:55:20.460Z,30.42
2023-02-23T18:57:46.803Z,28.77
2023-02-23T19:00:13.795Z,26.10
2023-02-23T19:02:40.504Z,30.23
2023-02-23T19:05:07.391Z,27.20
2023-02-23T19:07:33.906Z,44.20
2023-02-23T19:10:00.238Z,53.90
2023-02-23T19:12:26.723Z,94.60
2023-02-23T19:14:53.100Z,121.70
2023-02-23T19:17:19.399Z,132.40
2023-02-23T19:19:45.757Z,133.52
2023-02-23T19:22:12.276Z,126.00
2023-02-23T19:24:39.158Z,112.05
2023-02-23T19:27:05.770Z,104.70
2023-02-23T19:29:32.262Z,103.07
2023-02-23T19:31:59.216Z,94.15
2023-02-23T19:34:26.023Z,88.57
2023-02-23T19:36:52.362Z,89.05
2023-02-23T19:39:18.776Z,258.83
2023-02-23T19:41:45.769Z,218.43
2023-02-23T19:44:12.290Z,203.32
2023-02-23T19:46:39.130Z,186.93
2023-02-23T19:49:05.831Z,176.98
2023-02-23T19:51:32.291Z,168.93
2023-02-23T19:53:58.681Z,157.55
2023-02-23T19:56:25.020Z,150.10
2023-02-23T19:58:51.501Z,141.27
2023-02-23T20:01:18.299Z,189.80
2023-02-23T20:03:45.677Z,241.43
2023-02-23T20:06:12.035Z,243.13
2023-02-23T20:08:38.554Z,222.50
2023-02-23T20:11:04.998Z,205.48
2023-02-23T20:13:31.381Z,197.43
2023-02-23T20:15:57.672Z,179.32
2023-02-23T20:18:23.971Z,171.43
2023-02-23T20:20:50.321Z,167.55
2023-02-23T20:23:17.249Z,162.00
2023-02-23T20:25:44.263Z,148.60
2023-02-23T20:28:11.035Z,144.48
2023-02-23T20:30:37.531Z,144.82
2023-02-23T20:33:03.997Z,136.43
2023-02-23T20:35:30.399Z,129.85
2023-02-23T20:37:56.977Z,123.32
2023-02-23T20:40:23.279Z,121.28
2023-02-23T20:42:49.856Z,123.85
2023-02-23T20:45:16.738Z,250.65
2023-02-23T20:47:43.370Z,264.20
2023-02-23T20:50:09.916Z,236.18
2023-02-23T20:52:36.265Z,223.77
2023-02-23T20:55:03.051Z,214.40
2023-02-23T20:57:29.400Z,202.43
2023-02-23T20:59:55.748Z,191.10
2023-02-23T21:02:22.089Z,183.10
2023-02-23T21:04:48.574Z,250.25
2023-02-23T21:07:14.967Z,276.05
2023-02-23T21:09:41.309Z,339.10
2023-02-23T21:12:07.770Z,314.42
2023-02-23T21:14:35.489Z,317.40
2023-02-23T21:17:02.063Z,309.17
2023-02-23T21:19:28.596Z,299.65
2023-02-23T21:21:55.352Z,299.13
2023-02-23T21:24:21.721Z,298.80
2023-02-23T21:26:48.401Z,572.00
2023-02-23T21:29:14.825Z,601.40
2023-02-23T21:31:41.859Z,523.72
2023-02-23T21:34:08.560Z,494.63
2023-02-23T21:36:35.812Z,466.08
2023-02-23T21:39:02.221Z,451.15
2023-02-23T21:41:29.057Z,442.08
2023-02-23T21:43:55.607Z,429.20
2023-02-23T21:46:22.033Z,412.30
2023-02-23T21:48:48.443Z,497.70
2023-02-23T21:51:14.867Z,637.38
2023-02-23T21:53:41.260Z,607.13
2023-02-23T21:56:07.888Z,592.28
2023-02-23T21:58:34.838Z,553.17
2023-02-23T22:01:01.282Z,538.17
2023-02-23T22:03:27.643Z,518.40
2023-02-23T22:05:54.001Z,500.08
2023-02-23T22:08:20.813Z,583.80
2023-02-23T22:10:47.121Z,681.97
2023-02-23T22:13:14.524Z,639.10
2023-02-23T22:15:41.065Z,584.85
2023-02-23T22:18:07.936Z,564.83
2023-02-23T22:20:34.384Z,539.10
2023-02-23T22:23:00.851Z,519.90
2023-02-23T22:25:27.141Z,510.23
2023-02-23T22:27:53.443Z,503.80
2023-02-23T22:30:19.883Z,490.90
2023-02-23T22:32:46.578Z,478.63
2023-02-23T22:35:13.041Z,470.73
2023-02-23T22:37:39.810Z,461.52
2023-02-23T22:40:06.501Z,462.35
2023-02-23T22:42:32.795Z,449.80
2023-02-23T22:44:59.603Z,440.67
2023-02-23T22:47:26.039Z,435.38
2023-02-23T22:49:52.446Z,426.17
2023-02-23T22:52:18.871Z,421.52
2023-02-23T22:54:45.387Z,414.25
2023-02-23T22:57:11.701Z,407.95
2023-02-23T22:59:38.317Z,404.38
2023-02-23T23:02:04.673Z,398.42
2023-02-23T23:04:31.277Z,387.98
2023-02-23T23:06:57.918Z,383.25
2023-02-23T23:09:24.615Z,376.77
2023-02-23T23:11:51.379Z,377.40
2023-02-23T23:14:17.795Z,375.98
2023-02-23T23:16:44.346Z,364.65
2023-02-23T23:19:11.764Z,353.17
2023-02-23T23:21:39.030Z,358.63
2023-02-23T23:24:05.327Z,348.98
2023-02-23T23:26:31.782Z,341.98
2023-02-23T23:28:58.123Z,340.73
2023-02-23T23:31:25.063Z,330.60
2023-02-23T23:33:51.532Z,332.77
2023-02-23T23:36:18.042Z,332.45
2023-02-23T23:38:44.317Z,322.42
2023-02-23T23:41:10.613Z,320.52
2023-02-23T23:43:37.046Z,313.95
2023-02-23T23:46:03.385Z,310.75
2023-02-23T23:48:29.715Z,307.50
2023-02-23T23:50:56.190Z,298.13
2023-02-23T23:53:22.702Z,300.60
2023-02-23T23:55:49.053Z,293.45
2023-02-23T23:58:15.399Z,295.65
